MUR weather

Marudi Airport
Marudi, Sarawak, Malaysia

Public forecast

Using degrees Celsius for public forecast. Weather courtesy of forecast.io.

METAR (pilot weather report)

Closest report is Miri Airport, 22.2 nm (41.1 km) WNW. Retrieved 2019/04/25 12:00 UTC (10 minutes ago):

WBGR 251200Z 30004KT 210V360 9999 FEW015CB SCT016 BKN150 29/26 Q1007

TAF (pilot weather forecast)

Closest forecast is Miri Airport, 22.2 nm (41.1 km) WNW. Retrieved 2019/04/25 12:00 UTC (10 minutes ago):

TAF WBGR 251100Z 2512/2612 VRB03KT 9999 SCT016 TEMPO 2512/2515 4000 TSRA FEW015CB